| Date | Time | Temp. (oF) | Dew Point (oF) | Rel. Hum. (%) | Press. (in.) | Wind Dir. | Wind Speed (mph) | Hourly Rainfall (in.) |
|
|---|---|---|---|---|---|---|---|---|---|
| 1 | 03/06 | 00:00 | 31 | 26 | 83 | 30.10 | SSW | 1 | 0.00 |
| 2 | 03/05 | 23:00 | 33 | 26 | 78 | 30.08 | NW | 3 | 0.00 |
| 3 | 03/05 | 22:00 | 34 | 26 | 74 | 30.07 | WSW | 4 | 0.00 |
| 4 | 03/05 | 21:00 | 36 | 27 | 70 | 30.05 | NW | 1 | 0.00 |
| 5 | 03/05 | 20:00 | 37 | 27 | 67 | 30.02 | WSW | 4 | 0.00 |
| 6 | 03/05 | 19:00 | 38 | 26 | 62 | 29.98 | WNW | 10 | 0.00 |
| 7 | 03/05 | 18:00 | 41 | 27 | 59 | 29.94 | NNW | 6 | 0.00 |
| 8 | 03/05 | 17:00 | 44 | 28 | 55 | 29.88 | W | 15 | 0.00 |
| 9 | 03/05 | 16:00 | 46 | 30 | 54 | 29.84 | WNW | 21 | 0.00 |
| 10 | 03/05 | 15:00 | 49 | 33 | 55 | 29.78 | W | 4 | 0.00 |
| 11 | 03/05 | 14:00 | 50 | 35 | 57 | 29.75 | WNW | 15 | 0.00 |
| 12 | 03/05 | 13:00 | 48 | 34 | 60 | 29.72 | WSW | 9 | 0.00 |
| 13 | 03/05 | 12:00 | 48 | 35 | 63 | 29.69 | W | 14 | 0.00 |
| 14 | 03/05 | 11:00 | 49 | 38 | 67 | 29.66 | W | 11 | 0.00 |
| 15 | 03/05 | 10:00 | 47 | 40 | 77 | 29.64 | SSW | 12 | 0.00 |
| 16 | 03/05 | 09:00 | 45 | 41 | 89 | 29.60 | WSW | 2 | 0.00 |
| 17 | 03/05 | 08:00 | 44 | 42 | 93 | 29.54 | NW | 7 | 0.07 |
| 18 | 03/05 | 07:00 | 47 | 45 | 94 | 29.48 | WSW | 13 | 0.13 |
| 19 | 03/05 | 06:00 | 52 | 51 | 100 | 29.38 | S | 11 | 0.00 |
| 20 | 03/05 | 05:00 | 51 | 50 | 100 | 29.38 | E | 0 | 0.00 |
| 21 | 03/05 | 04:00 | 52 | 51 | 100 | 29.39 | SE | 0 | 0.09 |
| 22 | 03/05 | 03:00 | 54 | 53 | 97 | 29.44 | W | 6 | 0.08 |
| 23 | 03/05 | 02:00 | 62 | 61 | 97 | 29.35 | SSW | 15 | 0.13 |
| 24 | 03/05 | 01:00 | 62 | 60 | 96 | 29.41 | SSW | 17 | 0.11 |